Time;durP1;ratioP1;P1;durP2;ratioP2;P2;SDS_P1;SDS_P2;PMS_P1;PMS_P2;Temp;Humidity;BMP_temperature;BMP_pressure;BME280_temperature;BME280_humidity;BME280_pressure;Samples;Min_cycle;Max_cycle;Signal;HPM_P1;HPM_P2
2021/04/08 00:02:15;;;;;;;7.03;4.15;;;;;;;-145.19;100.00;59999.88;5006608;28;20129;-69
2021/04/08 00:04:41;;;;;;;8.27;4.00;;;;;;;-145.19;100.00;59999.88;5012450;28;20030;-68
2021/04/08 00:07:07;;;;;;;6.07;4.22;;;;;;;-145.19;100.00;59999.88;5012850;28;20121;-68
2021/04/08 00:09:34;;;;;;;7.30;3.92;;;;;;;-145.19;100.00;59999.88;5007154;28;20081;-68
2021/04/08 00:12:00;;;;;;;7.43;4.18;;;;;;;-145.19;100.00;59999.88;5016996;28;20073;-68
2021/04/08 00:14:27;;;;;;;7.30;3.95;;;;;;;-145.19;100.00;59999.88;5012661;28;20038;-68
2021/04/08 00:16:53;;;;;;;6.78;4.13;;;;;;;-145.19;100.00;59999.88;5004739;28;20565;-69
2021/04/08 00:19:20;;;;;;;6.22;3.63;;;;;;;-145.19;100.00;59999.88;5007040;28;20053;-68
2021/04/08 00:21:47;;;;;;;7.20;4.28;;;;;;;-145.19;100.00;59999.88;5013764;28;20048;-68
2021/04/08 00:24:13;;;;;;;6.20;3.90;;;;;;;-145.19;100.00;59999.88;5007814;28;20052;-68
2021/04/08 00:26:39;;;;;;;8.27;4.10;;;;;;;-145.19;100.00;59999.88;5005175;28;20061;-68
2021/04/08 00:29:06;;;;;;;6.30;3.97;;;;;;;-145.19;100.00;59999.88;5002912;28;20046;-68
2021/04/08 00:31:32;;;;;;;8.48;4.25;;;;;;;-145.19;100.00;59999.88;5005385;28;20136;-68
2021/04/08 00:34:06;;;;;;;7.82;4.07;;;;;;;-145.19;100.00;59999.88;5010042;28;20405;-68
2021/04/08 00:36:32;;;;;;;7.22;4.07;;;;;;;-145.19;100.00;59999.88;5007481;28;20509;-68
2021/04/08 00:38:59;;;;;;;6.65;4.07;;;;;;;-145.19;100.00;59999.88;5008204;28;20038;-68
2021/04/08 00:41:25;;;;;;;6.53;4.15;;;;;;;-145.19;100.00;59999.88;5019639;28;20046;-68
2021/04/08 00:43:51;;;;;;;9.02;3.78;;;;;;;-145.19;100.00;59999.88;5003299;28;20581;-68
2021/04/08 00:46:17;;;;;;;6.97;4.03;;;;;;;-145.19;100.00;59999.88;5009562;28;20588;-69
2021/04/08 00:48:43;;;;;;;9.55;4.68;;;;;;;-145.19;100.00;59999.88;5003002;28;20053;-68
2021/04/08 00:51:10;;;;;;;7.05;4.20;;;;;;;-145.19;100.00;59999.88;5005162;28;20124;-68
2021/04/08 00:53:36;;;;;;;8.02;4.35;;;;;;;-145.19;100.00;59999.88;5001998;28;20109;-68
2021/04/08 00:56:02;;;;;;;7.30;3.97;;;;;;;-145.19;100.00;59999.88;5001612;28;20129;-68
2021/04/08 00:58:31;;;;;;;11.88;4.80;;;;;;;-145.19;100.00;59999.88;5008588;28;20060;-68
2021/04/08 01:00:57;;;;;;;11.23;4.43;;;;;;;-145.19;100.00;59999.88;5027445;28;20080;-69
2021/04/08 01:03:24;;;;;;;7.07;3.90;;;;;;;-145.19;100.00;59999.88;5010398;28;20046;-69
2021/04/08 01:05:50;;;;;;;6.57;4.35;;;;;;;-145.19;100.00;59999.88;5006510;28;20042;-69
2021/04/08 01:08:16;;;;;;;5.72;3.53;;;;;;;-145.19;100.00;59999.88;5008596;28;21457;-69
2021/04/08 01:10:44;;;;;;;8.57;4.05;;;;;;;-145.19;100.00;59999.88;5010900;28;20549;-69
2021/04/08 01:13:13;;;;;;;9.90;4.60;;;;;;;-145.19;100.00;59999.88;5003139;28;20042;-68
2021/04/08 01:15:40;;;;;;;6.10;4.28;;;;;;;-145.19;100.00;59999.88;5008434;28;20073;-69
2021/04/08 01:18:33;;;;;;;6.35;3.60;;;;;;;-145.19;100.00;59999.88;5008148;28;20529;-69
2021/04/08 01:21:21;;;;;;;5.72;3.70;;;;;;;-145.19;100.00;59999.88;5005821;28;20117;-69
2021/04/08 01:24:16;;;;;;;7.00;3.47;;;;;;;-145.19;100.00;59999.88;5005033;28;20038;-68
2021/04/08 01:27:07;;;;;;;7.88;3.83;;;;;;;-145.19;100.00;59999.88;5010575;28;20429;-68
2021/04/08 01:29:48;;;;;;;5.47;3.42;;;;;;;-145.19;100.00;59999.88;5007382;28;20049;-68
2021/04/08 01:32:17;;;;;;;11.00;4.03;;;;;;;-145.19;100.00;59999.88;5003866;28;20531;-68
2021/04/08 01:34:48;;;;;;;4.93;3.75;;;;;;;-145.19;100.00;59999.88;5010620;28;20046;-68
2021/04/08 01:37:20;;;;;;;6.97;3.85;;;;;;;-145.19;100.00;59999.88;5012344;28;20045;-68
2021/04/08 01:39:47;;;;;;;4.63;3.20;;;;;;;-145.19;100.00;59999.88;5006368;28;20034;-68
2021/04/08 01:42:18;;;;;;;4.97;3.47;;;;;;;-145.19;100.00;59999.88;5002492;28;20122;-68
2021/04/08 01:44:45;;;;;;;4.18;3.33;;;;;;;-145.19;100.00;59999.88;5007073;28;20041;-69
2021/04/08 01:47:13;;;;;;;5.28;3.63;;;;;;;-145.19;100.00;59999.88;5009673;28;20048;-69
2021/04/08 01:49:43;;;;;;;4.53;2.80;;;;;;;-145.19;100.00;59999.88;5006824;28;20050;-69
2021/04/08 01:52:18;;;;;;;8.98;4.00;;;;;;;-145.19;100.00;59999.88;5003949;28;20053;-70
2021/04/08 01:54:49;;;;;;;7.25;3.85;;;;;;;-145.19;100.00;59999.88;5010418;28;20397;-69
2021/04/08 01:57:16;;;;;;;5.53;3.05;;;;;;;-145.19;100.00;59999.88;5003723;28;20077;-69
2021/04/08 01:59:43;;;;;;;6.38;3.58;;;;;;;-145.19;100.00;59999.88;5009425;28;20050;-68
2021/04/08 02:02:11;;;;;;;6.65;3.42;;;;;;;-145.19;100.00;59999.88;5012459;28;20034;-68
2021/04/08 02:04:39;;;;;;;7.30;3.17;;;;;;;-145.19;100.00;59999.88;5009889;28;20113;-68
2021/04/08 02:07:07;;;;;;;;;;;;;;;-145.19;100.00;59999.88;5009325;28;20058;-69
2021/04/08 02:09:37;;;;;;;5.75;2.80;;;;;;;-145.19;100.00;59999.88;5008113;28;19929;-69
2021/04/08 02:12:06;;;;;;;6.05;3.03;;;;;;;-145.19;100.00;59999.88;5011949;28;20073;-69
2021/04/08 02:14:35;;;;;;;9.23;3.40;;;;;;;-145.19;100.00;59999.88;5001688;28;20054;-69
2021/04/08 02:17:02;;;;;;;7.85;3.83;;;;;;;-145.19;100.00;59999.88;5003784;28;20387;-68
2021/04/08 02:19:32;;;;;;;5.63;3.40;;;;;;;-145.19;100.00;59999.88;5024704;28;20072;-69
2021/04/08 02:22:01;;;;;;;6.65;3.45;;;;;;;-145.19;100.00;59999.88;5010918;28;20042;-68
2021/04/08 02:24:27;;;;;;;8.43;3.38;;;;;;;-145.19;100.00;59999.88;5010966;28;20050;-68
2021/04/08 02:26:54;;;;;;;7.72;2.88;;;;;;;-145.19;100.00;59999.88;5010440;28;20052;-69
2021/04/08 02:29:21;;;;;;;4.85;3.08;;;;;;;-145.19;100.00;59999.88;5001088;28;20129;-69
2021/04/08 02:31:48;;;;;;;;;;;;;;;-145.19;100.00;59999.88;5001807;28;20053;-68
2021/04/08 02:34:15;;;;;;;6.10;3.33;;;;;;;-145.19;100.00;59999.88;5004641;28;20020;-69
2021/04/08 02:36:41;;;;;;;7.18;3.33;;;;;;;-145.19;100.00;59999.88;5001902;28;20046;-70
2021/04/08 02:39:10;;;;;;;6.70;3.28;;;;;;;-145.19;100.00;59999.88;5007737;28;20066;-69
2021/04/08 02:41:44;;;;;;;7.07;3.05;;;;;;;-145.19;100.00;59999.88;5012537;28;20044;-68
2021/04/08 02:44:12;;;;;;;5.03;3.25;;;;;;;-145.19;100.00;59999.88;5007715;28;20049;-69
2021/04/08 02:46:38;;;;;;;;;;;;;;;-145.19;100.00;59999.88;5008106;28;20077;-68
2021/04/08 02:49:04;;;;;;;7.18;4.07;;;;;;;-145.19;100.00;59999.88;5012260;28;19981;-69
2021/04/08 02:51:52;;;;;;;8.70;4.65;;;;;;;-145.19;100.00;59999.88;5006450;28;20129;-69
2021/04/08 02:54:30;;;;;;;9.45;5.50;;;;;;;-145.19;100.00;59999.88;5007344;28;20112;-69
2021/04/08 02:56:58;;;;;;;15.15;6.72;;;;;;;-145.19;100.00;59999.88;5008091;28;20065;-68
2021/04/08 02:59:30;;;;;;;;;;;;;;;-145.19;100.00;59999.88;5011868;28;20048;-68
2021/04/08 03:02:05;;;;;;;24.02;13.55;;;;;;;-145.19;100.00;59999.88;5005550;28;19926;-68
2021/04/08 03:04:37;;;;;;;20.02;10.98;;;;;;;-145.19;100.00;59999.88;5012589;28;20038;-69
2021/04/08 03:07:04;;;;;;;20.30;12.85;;;;;;;-145.19;100.00;59999.88;5000923;28;20439;-68
2021/04/08 03:09:36;;;;;;;19.63;11.60;;;;;;;-145.19;100.00;59999.88;5002222;28;20045;-69
2021/04/08 03:12:08;;;;;;;15.55;9.32;;;;;;;-145.19;100.00;59999.88;5008340;28;20125;-69
2021/04/08 03:14:40;;;;;;;19.08;10.95;;;;;;;-145.19;100.00;59999.88;5005909;28;20556;-68
2021/04/08 03:17:08;;;;;;;11.45;8.70;;;;;;;-145.19;100.00;59999.88;5005309;28;20478;-69
2021/04/08 03:19:39;;;;;;;13.25;7.68;;;;;;;-145.19;100.00;59999.88;5006200;28;20042;-69
2021/04/08 03:22:08;;;;;;;14.95;8.15;;;;;;;-145.19;100.00;59999.88;5000738;28;20054;-68
2021/04/08 03:24:38;;;;;;;13.80;9.20;;;;;;;-145.19;100.00;59999.88;5011744;28;20080;-69
2021/04/08 03:27:07;;;;;;;15.73;9.00;;;;;;;-145.19;100.00;59999.88;5006395;28;20038;-69
2021/04/08 03:29:38;;;;;;;11.38;8.30;;;;;;;-145.19;100.00;59999.88;5007098;28;20046;-69
2021/04/08 03:32:05;;;;;;;15.82;7.63;;;;;;;-145.19;100.00;59999.88;5001811;28;20042;-68
2021/04/08 03:34:33;;;;;;;11.90;7.68;;;;;;;-145.19;100.00;59999.88;5020058;28;20049;-69
2021/04/08 03:36:59;;;;;;;;;;;;;;;-145.19;100.00;59999.88;5010017;28;20849;-70
2021/04/08 03:39:26;;;;;;;13.02;6.97;;;;;;;-145.19;100.00;59999.88;5010890;28;20013;-69
2021/04/08 03:41:52;;;;;;;12.05;6.25;;;;;;;-145.19;100.00;59999.88;5010612;28;20056;-69
2021/04/08 03:44:19;;;;;;;11.60;5.53;;;;;;;-145.19;100.00;59999.88;5000614;28;20482;-69
2021/04/08 03:46:46;;;;;;;12.40;5.57;;;;;;;-145.19;100.00;59999.88;5009642;28;20343;-69
2021/04/08 03:49:15;;;;;;;8.33;5.13;;;;;;;-145.19;100.00;59999.88;5007939;28;20050;-69
2021/04/08 03:51:44;;;;;;;7.85;5.20;;;;;;;-145.19;100.00;59999.88;5009840;28;20133;-69
2021/04/08 03:54:13;;;;;;;10.68;5.40;;;;;;;-145.19;100.00;59999.88;5012285;28;20124;-69
2021/04/08 03:56:43;;;;;;;8.52;4.93;;;;;;;-145.19;100.00;59999.88;5006640;28;20065;-68
2021/04/08 03:59:10;;;;;;;9.38;6.30;;;;;;;-145.19;100.00;59999.88;5011345;28;20046;-68
2021/04/08 04:01:37;;;;;;;8.80;6.32;;;;;;;-145.19;100.00;59999.88;5011861;28;20060;-69
2021/04/08 04:04:05;;;;;;;11.38;6.25;;;;;;;-145.19;100.00;59999.88;5006859;28;20124;-70
2021/04/08 04:06:34;;;;;;;16.58;7.95;;;;;;;-145.19;100.00;59999.88;5014802;28;20053;-69
2021/04/08 04:09:03;;;;;;;16.58;9.73;;;;;;;-145.19;100.00;59999.88;5011873;28;20053;-69
2021/04/08 04:11:31;;;;;;;20.02;10.93;;;;;;;-145.19;100.00;59999.88;5006417;28;20058;-69
2021/04/08 04:14:00;;;;;;;21.80;13.45;;;;;;;-145.19;100.00;59999.88;5009421;28;20081;-69
2021/04/08 04:16:29;;;;;;;22.17;14.30;;;;;;;-145.19;100.00;59999.88;5009230;28;20038;-69
2021/04/08 04:18:55;;;;;;;49.95;14.48;;;;;;;-145.19;100.00;59999.88;5008574;28;20379;-69
2021/04/08 04:21:21;;;;;;;27.55;17.80;;;;;;;-145.19;100.00;59999.88;5012188;28;20466;-68
2021/04/08 04:23:47;;;;;;;20.38;12.88;;;;;;;-145.19;100.00;59999.88;5014827;28;20128;-69
2021/04/08 04:26:13;;;;;;;23.58;14.60;;;;;;;-145.19;100.00;59999.88;5007605;28;20397;-68
2021/04/08 04:28:39;;;;;;;23.15;13.05;;;;;;;-145.19;100.00;59999.88;5009252;28;20042;-69
2021/04/08 04:31:06;;;;;;;20.40;12.13;;;;;;;-145.19;100.00;59999.88;5013492;28;20034;-68
2021/04/08 04:33:32;;;;;;;20.13;11.93;;;;;;;-145.19;100.00;59999.88;5014679;28;20038;-69
2021/04/08 04:35:59;;;;;;;16.67;11.45;;;;;;;-145.19;100.00;59999.88;5010360;28;20426;-68
2021/04/08 04:38:25;;;;;;;17.83;12.07;;;;;;;-145.19;100.00;59999.88;5013073;28;20046;-68
2021/04/08 04:40:51;;;;;;;16.30;11.15;;;;;;;-145.19;100.00;59999.88;5004513;28;20109;-70
2021/04/08 04:43:17;;;;;;;18.95;11.85;;;;;;;-145.19;100.00;59999.88;5013221;28;20040;-70
2021/04/08 04:45:43;;;;;;;18.27;11.32;;;;;;;-145.19;100.00;59999.88;5009675;28;20037;-70
2021/04/08 04:48:10;;;;;;;25.15;15.10;;;;;;;-145.19;100.00;59999.88;5012050;28;20129;-70
2021/04/08 04:50:38;;;;;;;16.33;11.07;;;;;;;-145.19;100.00;59999.88;5008656;28;20045;-70
2021/04/08 04:53:04;;;;;;;14.95;9.57;;;;;;;-145.19;100.00;59999.88;5009865;28;20046;-71
2021/04/08 04:55:31;;;;;;;14.18;10.23;;;;;;;-145.19;100.00;59999.88;5013882;28;20124;-70
2021/04/08 04:57:57;;;;;;;20.20;13.35;;;;;;;-145.19;100.00;59999.88;5010678;28;20045;-70
2021/04/08 05:00:23;;;;;;;16.48;9.70;;;;;;;-145.19;100.00;59999.88;5009704;28;20074;-70
2021/04/08 05:02:50;;;;;;;13.02;8.55;;;;;;;-145.19;100.00;59999.88;5012051;28;20064;-69
2021/04/08 05:05:17;;;;;;;13.48;9.65;;;;;;;-145.19;100.00;59999.88;5013017;28;20680;-67
2021/04/08 05:07:44;;;;;;;13.80;9.27;;;;;;;-145.19;100.00;59999.88;5009099;28;20050;-70
2021/04/08 05:10:11;;;;;;;13.63;9.10;;;;;;;-145.19;100.00;59999.88;5013084;28;20045;-71
2021/04/08 05:12:38;;;;;;;10.98;6.47;;;;;;;-145.19;100.00;59999.88;5010223;28;20133;-67
2021/04/08 05:15:06;;;;;;;9.30;7.43;;;;;;;-145.19;100.00;59999.88;5007225;28;20050;-67
2021/04/08 05:17:33;;;;;;;13.88;8.38;;;;;;;-145.19;100.00;59999.88;5014382;28;20129;-67
2021/04/08 05:20:01;;;;;;;12.32;8.90;;;;;;;-145.19;100.00;59999.88;5008256;28;20102;-69
2021/04/08 05:22:27;;;;;;;;;;;;;;;-145.19;100.00;59999.88;5009497;28;20042;-74
2021/04/08 05:24:55;;;;;;;18.52;12.82;;;;;;;-145.19;100.00;59999.88;5011743;28;19948;-69
2021/04/08 05:27:21;;;;;;;28.98;17.60;;;;;;;-145.19;100.00;59999.88;5002012;28;20497;-66
2021/04/08 05:29:47;;;;;;;22.92;14.65;;;;;;;-145.19;100.00;59999.88;5007396;28;20116;-67
2021/04/08 05:32:13;;;;;;;36.20;19.38;;;;;;;-145.19;100.00;59999.88;5013214;28;20145;-69
2021/04/08 05:34:39;;;;;;;23.83;14.38;;;;;;;-145.19;100.00;59999.88;5006535;28;20551;-66
2021/04/08 05:37:05;;;;;;;37.78;19.17;;;;;;;-145.19;100.00;59999.88;5006225;28;20041;-73
2021/04/08 05:39:32;;;;;;;40.13;20.42;;;;;;;-145.19;100.00;59999.88;5008423;28;20100;-71
2021/04/08 05:41:58;;;;;;;22.15;14.32;;;;;;;-145.19;100.00;59999.88;5004601;28;20133;-65
2021/04/08 05:44:24;;;;;;;24.58;15.75;;;;;;;-145.19;100.00;59999.88;5009079;28;20043;-74
2021/04/08 05:46:50;;;;;;;17.17;10.10;;;;;;;-145.19;100.00;59999.88;5010765;28;20149;-69
2021/04/08 05:49:17;;;;;;;18.48;12.52;;;;;;;-145.19;100.00;59999.88;5003861;28;20081;-72
2021/04/08 05:51:43;;;;;;;18.27;10.27;;;;;;;-145.19;100.00;59999.88;5008225;28;20104;-67
2021/04/08 05:54:10;;;;;;;13.25;9.98;;;;;;;-145.19;100.00;59999.88;5009332;28;20125;-67
2021/04/08 05:56:36;;;;;;;13.40;8.48;;;;;;;-145.19;100.00;59999.88;5024808;28;20050;-67
2021/04/08 05:59:02;;;;;;;14.75;8.52;;;;;;;-145.19;100.00;59999.88;5007531;28;20049;-67
2021/04/08 06:01:29;;;;;;;13.70;7.93;;;;;;;-145.19;100.00;59999.88;5007293;28;20050;-67
2021/04/08 06:03:55;;;;;;;10.70;6.38;;;;;;;-145.19;100.00;59999.88;5006205;28;20076;-67
2021/04/08 06:06:22;;;;;;;7.82;5.90;;;;;;;-145.19;100.00;59999.88;5004045;28;20038;-67
2021/04/08 06:08:48;;;;;;;7.43;5.40;;;;;;;-145.19;100.00;59999.88;5014936;28;20048;-68
2021/04/08 06:11:15;;;;;;;9.30;5.95;;;;;;;-145.19;100.00;59999.88;5001367;28;20401;-68
2021/04/08 06:13:41;;;;;;;12.38;9.15;;;;;;;-145.19;100.00;59999.88;4999350;28;20053;-67
2021/04/08 06:16:08;;;;;;;11.65;8.63;;;;;;;-145.19;100.00;59999.88;5016790;28;20522;-68
2021/04/08 06:18:35;;;;;;;10.38;6.47;;;;;;;-145.19;100.00;59999.88;5003115;28;20505;-67
2021/04/08 06:21:01;;;;;;;10.25;5.30;;;;;;;-145.19;100.00;59999.88;5000835;28;20038;-68
2021/04/08 06:23:27;;;;;;;8.05;5.70;;;;;;;-145.19;100.00;59999.88;5001800;28;20049;-67
2021/04/08 06:25:54;;;;;;;10.38;6.07;;;;;;;-145.19;100.00;59999.88;4999812;28;20046;-67
2021/04/08 06:28:20;;;;;;;8.45;5.68;;;;;;;-145.19;100.00;59999.88;5001678;28;20049;-68
2021/04/08 06:30:46;;;;;;;11.73;6.63;;;;;;;-145.19;100.00;59999.88;4999844;28;20113;-68
2021/04/08 06:33:13;;;;;;;6.72;4.60;;;;;;;-145.19;100.00;59999.88;5001162;28;20042;-67
2021/04/08 06:35:39;;;;;;;9.80;5.28;;;;;;;-145.19;100.00;59999.88;5000229;28;20042;-67
2021/04/08 06:38:06;;;;;;;7.33;4.63;;;;;;;-145.19;100.00;59999.88;5001476;28;20073;-67
2021/04/08 06:40:32;;;;;;;8.52;4.53;;;;;;;-145.19;100.00;59999.88;5001172;28;20550;-66
2021/04/08 06:42:59;;;;;;;8.65;5.70;;;;;;;-145.19;100.00;59999.88;5002827;28;20076;-67
2021/04/08 06:45:32;;;;;;;9.40;4.50;;;;;;;-145.19;100.00;59999.88;4999837;28;20880;-67
2021/04/08 06:48:10;;;;;;;8.23;4.80;;;;;;;-145.19;100.00;59999.88;5007683;28;20073;-67
2021/04/08 06:50:40;;;;;;;15.77;5.50;;;;;;;-145.19;100.00;59999.88;5000469;28;20129;-65
2021/04/08 06:53:07;;;;;;;10.07;4.63;;;;;;;-145.19;100.00;59999.88;5000685;28;20069;-67
2021/04/08 06:55:35;;;;;;;9.38;5.15;;;;;;;-145.19;100.00;59999.88;5004085;28;20689;-67
2021/04/08 06:58:04;;;;;;;7.70;4.63;;;;;;;-145.19;100.00;59999.88;4999807;28;20050;-67
2021/04/08 07:00:32;;;;;;;8.18;5.03;;;;;;;-145.19;100.00;59999.88;5001920;28;20049;-67
2021/04/08 07:03:01;;;;;;;8.65;5.30;;;;;;;-145.19;100.00;59999.88;5004851;28;20100;-68
2021/04/08 07:05:28;;;;;;;6.10;4.53;;;;;;;-145.19;100.00;59999.88;5019005;28;20038;-67
2021/04/08 07:07:54;;;;;;;8.80;4.90;;;;;;;-145.19;100.00;59999.88;5000974;28;20046;-68
2021/04/08 07:10:20;;;;;;;6.88;4.78;;;;;;;-145.19;100.00;59999.88;5006284;28;20049;-66
2021/04/08 07:12:47;;;;;;;10.00;5.88;;;;;;;-145.19;100.00;59999.88;5000411;28;20118;-66
2021/04/08 07:15:13;;;;;;;8.10;4.72;;;;;;;-145.19;100.00;59999.88;5002203;28;20061;-67
2021/04/08 07:17:43;;;;;;;8.93;5.18;;;;;;;-145.19;100.00;59999.88;5007290;28;20046;-67
2021/04/08 07:20:10;;;;;;;6.93;5.20;;;;;;;-145.19;100.00;59999.88;5008981;28;20152;-65
2021/04/08 07:22:36;;;;;;;16.83;11.82;;;;;;;-145.19;100.00;59999.88;5002857;28;20160;-67
2021/04/08 07:25:13;;;;;;;25.92;16.77;;;;;;;-145.19;100.00;59999.88;4999367;28;20040;-69
2021/04/08 07:27:39;;;;;;;11.10;8.02;;;;;;;-145.19;100.00;59999.88;5009770;28;20040;-71
2021/04/08 07:30:06;;;;;;;12.88;5.85;;;;;;;-145.19;100.00;59999.88;5005890;28;20073;-70
2021/04/08 07:32:34;;;;;;;10.47;6.33;;;;;;;-145.19;100.00;59999.88;5006479;28;20053;-69
2021/04/08 07:35:16;;;;;;;10.55;5.72;;;;;;;-145.19;100.00;59999.88;5007102;28;20038;-66
2021/04/08 07:37:53;;;;;;;9.38;5.13;;;;;;;-145.19;100.00;59999.88;5002808;28;20091;-65
2021/04/08 07:40:26;;;;;;;5.85;4.07;;;;;;;-145.19;100.00;59999.88;5004997;28;20114;-67
2021/04/08 07:42:53;;;;;;;10.85;5.03;;;;;;;-145.19;100.00;59999.88;5002906;28;20065;-67
2021/04/08 07:45:29;;;;;;;;;;;;;;;-145.19;100.00;59999.88;5000711;28;20038;-66
2021/04/08 07:47:58;;;;;;;6.95;3.97;;;;;;;-145.19;100.00;59999.88;5002776;28;19925;-66
2021/04/08 07:50:25;;;;;;;7.40;4.85;;;;;;;-145.19;100.00;59999.88;5020365;28;20058;-66
2021/04/08 07:52:53;;;;;;;6.03;4.03;;;;;;;-145.19;100.00;59999.88;5004914;28;20052;-66
2021/04/08 07:55:29;;;;;;;;;;;;;;;-145.19;100.00;59999.88;5017873;28;20702;-66
2021/04/08 07:58:08;;;;;;;11.30;8.00;;;;;;;-145.19;100.00;59999.88;5023835;28;19984;-66
2021/04/08 08:00:39;;;;;;;7.28;5.05;;;;;;;-145.19;100.00;59999.88;5006885;28;20086;-67
2021/04/08 08:03:10;;;;;;;16.45;10.75;;;;;;;-145.19;100.00;59999.88;5006657;28;20102;-65
2021/04/08 08:05:40;;;;;;;7.97;6.22;;;;;;;-145.19;100.00;59999.88;5021824;28;20108;-67
2021/04/08 08:08:19;;;;;;;7.07;4.53;;;;;;;-145.19;100.00;59999.88;5008362;28;20092;-66
2021/04/08 08:10:59;;;;;;;6.72;3.75;;;;;;;-145.19;100.00;59999.88;5004516;28;20046;-65
2021/04/08 08:13:54;;;;;;;7.78;3.78;;;;;;;-145.19;100.00;59999.88;5004062;28;20046;-66
2021/04/08 08:16:28;;;;;;;6.88;3.70;;;;;;;-145.19;100.00;59999.88;5004963;28;20638;-67
2021/04/08 08:18:55;;;;;;;4.85;3.53;;;;;;;-145.19;100.00;59999.88;5007833;28;20046;-66
2021/04/08 08:21:35;;;;;;;5.78;3.30;;;;;;;-145.19;100.00;59999.88;5004804;28;20041;-68
2021/04/08 08:24:07;;;;;;;3.92;3.50;;;;;;;-145.19;100.00;59999.88;5005247;28;20042;-67
2021/04/08 08:26:40;;;;;;;5.18;3.15;;;;;;;-145.19;100.00;59999.88;5005979;28;20137;-67
2021/04/08 08:29:06;;;;;;;6.97;4.00;;;;;;;-145.19;100.00;59999.88;5011298;28;20046;-66
2021/04/08 08:31:39;;;;;;;3.88;3.20;;;;;;;-145.19;100.00;59999.88;5008594;28;20125;-67
2021/04/08 08:34:26;;;;;;;6.75;3.17;;;;;;;-145.19;100.00;59999.88;5021383;28;20038;-66
2021/04/08 08:36:53;;;;;;;5.47;3.42;;;;;;;-145.19;100.00;59999.88;5007064;28;20129;-66
2021/04/08 08:39:28;;;;;;;6.32;3.33;;;;;;;-145.19;100.00;59999.88;5007655;28;20042;-66
2021/04/08 08:41:55;;;;;;;4.78;3.10;;;;;;;-145.19;100.00;59999.88;5004824;28;20056;-66
2021/04/08 08:44:22;;;;;;;4.85;3.20;;;;;;;-145.19;100.00;59999.88;5002869;28;20384;-65
2021/04/08 08:46:59;;;;;;;6.35;3.33;;;;;;;-145.19;100.00;59999.88;5004568;28;20542;-66
2021/04/08 08:49:31;;;;;;;6.25;2.65;;;;;;;-145.19;100.00;59999.88;5005055;28;20050;-66
2021/04/08 08:51:59;;;;;;;8.35;2.08;;;;;;;-145.19;100.00;59999.88;5006733;28;20058;-66
2021/04/08 08:54:27;;;;;;;9.65;3.33;;;;;;;-145.19;100.00;59999.88;5002967;28;20034;-69
2021/04/08 08:56:56;;;;;;;5.57;3.15;;;;;;;-145.19;100.00;59999.88;5008547;28;20448;-68
2021/04/08 08:59:23;;;;;;;8.68;3.20;;;;;;;-145.19;100.00;59999.88;5007797;28;20084;-67
2021/04/08 09:01:50;;;;;;;6.20;3.22;;;;;;;-145.19;100.00;59999.88;5006699;28;20398;-66
2021/04/08 09:04:16;;;;;;;6.13;3.72;;;;;;;-145.19;100.00;59999.88;5007828;28;20118;-67
2021/04/08 09:06:56;;;;;;;5.32;2.90;;;;;;;-145.19;100.00;59999.88;5000158;28;20065;-68
2021/04/08 09:09:25;;;;;;;8.23;3.95;;;;;;;-145.19;100.00;59999.88;5002219;28;20074;-67
2021/04/08 09:11:52;;;;;;;7.00;3.65;;;;;;;-145.19;100.00;59999.88;5017785;28;20065;-72
2021/04/08 09:14:20;;;;;;;3.70;2.88;;;;;;;-145.19;100.00;59999.88;5002012;28;20073;-68
2021/04/08 09:16:48;;;;;;;5.65;3.20;;;;;;;-145.19;100.00;59999.88;5005795;28;20100;-68
2021/04/08 09:19:25;;;;;;;9.55;3.60;;;;;;;-145.19;100.00;59999.88;5001979;28;20563;-69
2021/04/08 09:21:53;;;;;;;32.75;19.10;;;;;;;-145.19;100.00;59999.88;5017516;28;20049;-66
2021/04/08 09:24:23;;;;;;;25.40;14.55;;;;;;;-145.19;100.00;59999.88;4999820;28;20433;-67
2021/04/08 09:26:56;;;;;;;27.80;20.23;;;;;;;-145.19;100.00;59999.88;5003949;28;20042;-71
2021/04/08 09:29:41;;;;;;;19.48;14.38;;;;;;;-145.19;100.00;59999.88;5005513;28;20520;-68
2021/04/08 09:32:34;;;;;;;5.50;3.83;;;;;;;-145.19;100.00;59999.88;4996814;28;20074;-67
2021/04/08 09:35:09;;;;;;;5.90;4.60;;;;;;;-145.19;100.00;59999.88;4999623;28;20469;-65
2021/04/08 09:37:41;;;;;;;5.47;3.40;;;;;;;-145.19;100.00;59999.88;4998213;28;20049;-67
2021/04/08 09:40:07;;;;;;;4.78;3.03;;;;;;;-145.19;100.00;59999.88;4997449;28;20164;-67
2021/04/08 09:42:39;;;;;;;4.43;3.20;;;;;;;-145.19;100.00;59999.88;4998528;28;20072;-65
2021/04/08 09:45:05;;;;;;;5.93;3.40;;;;;;;-145.19;100.00;59999.88;4999214;28;20841;-68
2021/04/08 09:47:33;;;;;;;8.32;3.53;;;;;;;-145.19;100.00;59999.88;5002227;28;20050;-67
2021/04/08 09:49:59;;;;;;;5.20;3.42;;;;;;;-145.19;100.00;59999.88;5003892;28;20056;-68
2021/04/08 09:52:26;;;;;;;4.28;3.28;;;;;;;-145.19;100.00;59999.88;5006462;28;20126;-68
2021/04/08 09:54:55;;;;;;;4.70;2.90;;;;;;;-145.19;100.00;59999.88;5003707;28;20072;-67
2021/04/08 09:57:35;;;;;;;4.20;3.08;;;;;;;-145.19;100.00;59999.88;5010472;28;20049;-68
2021/04/08 10:00:06;;;;;;;3.45;3.00;;;;;;;-145.19;100.00;59999.88;5012038;28;20053;-68
2021/04/08 10:02:37;;;;;;;3.63;2.72;;;;;;;-145.19;100.00;59999.88;5006777;28;20070;-66
2021/04/08 10:05:09;;;;;;;10.00;5.00;;;;;;;-145.19;100.00;59999.88;5008888;28;20183;-67
2021/04/08 10:07:58;;;;;;;6.18;4.03;;;;;;;-145.19;100.00;59999.88;5022332;28;20069;-65
2021/04/08 10:10:37;;;;;;;8.68;6.22;;;;;;;-145.19;100.00;59999.88;5004089;28;20121;-68
2021/04/08 10:13:24;;;;;;;6.07;4.70;;;;;;;-145.19;100.00;59999.88;5007616;28;20129;-68
2021/04/08 10:15:54;;;;;;;4.38;3.20;;;;;;;-145.19;100.00;59999.88;5002847;28;20042;-67
2021/04/08 10:18:28;;;;;;;4.47;3.30;;;;;;;-145.19;100.00;59999.88;5010904;28;20054;-66
2021/04/08 10:21:00;;;;;;;5.63;3.65;;;;;;;-145.19;100.00;59999.88;5013046;28;20038;-65
2021/04/08 10:23:34;;;;;;;4.65;3.10;;;;;;;-145.19;100.00;59999.88;5009107;28;20371;-66
2021/04/08 10:26:22;;;;;;;5.38;3.65;;;;;;;-145.19;100.00;59999.88;5013512;28;20046;-68
2021/04/08 10:28:54;;;;;;;12.35;10.95;;;;;;;-145.19;100.00;59999.88;5012384;28;20050;-66
2021/04/08 10:31:28;;;;;;;3.90;2.92;;;;;;;-145.19;100.00;59999.88;5009595;28;20441;-68
2021/04/08 10:34:16;;;;;;;5.25;3.40;;;;;;;-145.19;100.00;59999.88;5010413;28;20042;-67
2021/04/08 10:36:45;;;;;;;5.10;3.70;;;;;;;-145.19;100.00;59999.88;5004347;28;20048;-66
2021/04/08 10:39:16;;;;;;;4.90;2.78;;;;;;;-145.19;100.00;59999.88;5010218;28;20069;-72
2021/04/08 10:42:01;;;;;;;6.57;3.47;;;;;;;-145.19;100.00;59999.88;5007308;28;20046;-70
2021/04/08 10:44:35;;;;;;;6.47;4.18;;;;;;;-145.19;100.00;59999.88;5003630;28;20589;-67
2021/04/08 10:47:13;;;;;;;4.55;3.83;;;;;;;-145.19;100.00;59999.88;5007774;28;20073;-69
2021/04/08 10:49:47;;;;;;;5.60;3.85;;;;;;;-145.19;100.00;59999.88;5014288;28;20041;-68
2021/04/08 10:52:17;;;;;;;34.40;15.60;;;;;;;-145.19;100.00;59999.88;5006486;28;20390;-69
2021/04/08 10:54:47;;;;;;;21.67;9.82;;;;;;;-145.19;100.00;59999.88;5006603;28;20035;-66
2021/04/08 10:57:15;;;;;;;8.57;5.28;;;;;;;-145.19;100.00;59999.88;5004597;28;20520;-58
2021/04/08 10:59:43;;;;;;;8.90;4.40;;;;;;;-145.19;100.00;59999.88;5003987;28;20037;-66
2021/04/08 11:02:36;;;;;;;9.73;5.97;;;;;;;-145.19;100.00;59999.88;5006335;28;20084;-67
2021/04/08 11:05:24;;;;;;;12.55;8.30;;;;;;;-145.19;100.00;59999.88;5007648;28;20550;-66
2021/04/08 11:07:54;;;;;;;5.95;3.95;;;;;;;-145.19;100.00;59999.88;5009250;28;20054;-65
2021/04/08 11:10:26;;;;;;;5.05;3.72;;;;;;;-145.19;100.00;59999.88;5009656;28;20049;-67
2021/04/08 11:12:55;;;;;;;7.05;4.07;;;;;;;-145.19;100.00;59999.88;5006167;28;20125;-66
2021/04/08 11:15:24;;;;;;;5.60;4.15;;;;;;;-145.19;100.00;59999.88;5002903;28;20094;-66
2021/04/08 11:17:53;;;;;;;4.30;3.60;;;;;;;-145.19;100.00;59999.88;5010050;28;20049;-66
2021/04/08 11:20:34;;;;;;;5.22;3.80;;;;;;;-145.19;100.00;59999.88;5005785;28;20557;-66